Terminal Aerodrome Forecast
Issued by NWS

Home | Current Version | Previous Version | Text Only | Print | Product List | Glossary On
Versions: 1 2 3 4 5 6 7 8 9 10 11 12 13 14 15 16 17 18 19 20 21 22 23 24 25 26 27 28 29 30 31 32 33 34 35 36 37 38 39 40 41 42
000
FTUS43 KDDC 312320
TAFGCK
TAF
KGCK 312320Z 0100/0124 07009KT P6SM VCTS BKN120CB
     FM010200 07006KT P6SM BKN020
     FM010700 07006KT 5SM BR BKN008
     FM010900 08006KT 3SM BR BKN003
      TEMPO 0110/0114 1/4SM FG
     FM011500 10007KT P6SM BKN008
     FM011800 12008KT P6SM BKN035=

USA.gov is the U.S. government's official web portal to all federal, state and local government web resources and services.